Time;durP1;ratioP1;P1;durP2;ratioP2;P2;SDS_P1;SDS_P2;PMS_P1;PMS_P2;Temp;Humidity;BMP_temperature;BMP_pressure;BME280_temperature;BME280_humidity;BME280_pressure;Samples;Min_cycle;Max_cycle;Signal;HPM_P1;HPM_P2
2023/03/05 00:01:23;;;;;;;9.43;1.48;;;1.40;77.30;;;;;;4996086;28;20054;-79
2023/03/05 00:03:52;;;;;;;12.90;1.50;;;1.30;77.20;;;;;;5002857;28;20046;-79
2023/03/05 00:06:22;;;;;;;8.85;1.58;;;1.30;77.30;;;;;;5006994;28;20046;-79
2023/03/05 00:08:50;;;;;;;9.40;1.83;;;1.40;77.00;;;;;;4992967;28;20054;-79
2023/03/05 00:14:29;;;;;;;11.77;2.17;;;1.40;76.80;;;;;;5019404;28;20042;-73
2023/03/05 00:16:55;;;;;;;8.68;2.00;;;1.40;76.70;;;;;;5008797;28;20050;-73
2023/03/05 00:19:22;;;;;;;10.43;1.73;;;1.40;75.70;;;;;;5001660;28;20054;-73
2023/03/05 00:21:49;;;;;;;13.25;1.73;;;1.30;75.90;;;;;;5009615;28;20123;-73
2023/03/05 00:24:30;;;;;;;15.27;1.73;;;1.30;76.00;;;;;;5064388;23;20518;-73
2023/03/05 00:26:57;;;;;;;14.75;1.75;;;1.20;75.90;;;;;;4990978;28;20045;-73
2023/03/05 00:29:24;;;;;;;8.68;1.60;;;1.20;75.30;;;;;;5004899;28;20572;-73
2023/03/05 00:31:50;;;;;;;9.60;1.92;;;1.30;75.30;;;;;;5015932;23;20056;-78
2023/03/05 00:34:18;;;;;;;17.98;2.10;;;1.30;75.40;;;;;;4999496;28;20042;-80
2023/03/05 00:39:28;;;;;;;14.55;2.25;;;1.20;75.00;;;;;;4984624;28;20054;-74
2023/03/05 00:41:55;;;;;;;11.85;2.10;;;1.30;75.80;;;;;;4984935;28;20042;-73
2023/03/05 00:44:23;;;;;;;6.90;1.50;;;1.20;76.80;;;;;;4998616;23;20050;-78
2023/03/05 00:46:49;;;;;;;14.98;2.30;;;1.20;75.80;;;;;;4998318;28;20062;-79
2023/03/05 00:49:16;;;;;;;11.82;1.65;;;1.20;76.10;;;;;;4978427;28;20049;-79
2023/03/05 00:51:43;;;;;;;12.20;2.45;;;1.20;75.80;;;;;;4984252;28;20053;-79
2023/03/05 00:54:10;;;;;;;10.77;1.80;;;1.20;77.00;;;;;;4989401;28;20054;-79
2023/03/05 00:56:37;;;;;;;11.13;1.83;;;1.20;76.80;;;;;;4996907;28;20046;-79
2023/03/05 00:59:19;;;;;;;13.90;1.98;;;1.20;77.20;;;;;;4973230;28;20081;-79
2023/03/05 01:01:46;;;;;;;6.72;1.67;;;1.20;76.60;;;;;;4966641;28;20050;-73
2023/03/05 01:04:13;;;;;;;7.70;1.92;;;1.10;75.80;;;;;;4990137;28;20183;-73
2023/03/05 01:06:43;;;;;;;14.57;1.95;;;1.10;75.60;;;;;;4967062;28;20065;-73
2023/03/05 01:09:11;;;;;;;11.23;1.73;;;1.20;75.90;;;;;;4989428;28;20138;-73
2023/03/05 01:11:37;;;;;;;12.98;1.98;;;1.20;76.30;;;;;;4969940;28;20046;-73
2023/03/05 01:14:04;;;;;;;22.23;1.63;;;1.20;77.00;;;;;;4973678;28;20331;-73
2023/03/05 01:16:31;;;;;;;11.23;1.58;;;1.10;77.00;;;;;;4976082;28;20074;-72
2023/03/05 01:18:58;;;;;;;8.77;1.30;;;1.10;76.60;;;;;;4969235;28;20148;-73
2023/03/05 01:21:25;;;;;;;9.18;1.80;;;1.10;76.10;;;;;;4974609;28;20169;-73
2023/03/05 01:23:52;;;;;;;12.45;1.63;;;1.10;76.10;;;;;;4985310;28;20057;-72
2023/03/05 01:26:19;;;;;;;9.93;1.75;;;1.10;75.80;;;;;;4965304;28;20333;-73
2023/03/05 01:28:46;;;;;;;5.88;1.20;;;1.10;75.70;;;;;;5002106;23;20053;-79
2023/03/05 01:31:12;;;;;;;13.30;1.33;;;1.10;76.90;;;;;;5008867;28;20119;-79
2023/03/05 01:33:39;;;;;;;7.20;1.50;;;1.10;76.50;;;;;;4997422;28;20079;-79
2023/03/05 01:36:12;;;;;;;10.40;1.90;;;1.10;76.30;;;;;;5014269;23;20411;-73
2023/03/05 01:38:41;;;;;;;14.10;2.30;;;1.20;76.10;;;;;;4947082;28;20445;-73
2023/03/05 01:41:09;;;;;;;8.68;1.55;;;1.20;76.20;;;;;;4952030;28;20077;-73
2023/03/05 01:43:35;;;;;;;10.30;1.80;;;1.20;76.10;;;;;;4967981;28;20047;-73
2023/03/05 01:46:22;;;;;;;6.75;1.48;;;1.20;76.10;;;;;;4961608;28;20054;-73
2023/03/05 01:49:14;;;;;;;15.18;1.98;;;1.20;76.40;;;;;;4963147;28;20050;-73
2023/03/05 01:51:57;;;;;;;17.75;2.25;;;1.20;77.50;;;;;;4961406;28;20058;-74
2023/03/05 01:54:42;;;;;;;5.68;1.35;;;1.20;77.50;;;;;;4965838;28;20113;-74
2023/03/05 01:57:21;;;;;;;14.45;1.75;;;1.10;82.20;;;;;;4961239;28;20053;-74
2023/03/05 01:59:51;;;;;;;5.70;1.17;;;0.90;85.00;;;;;;4948636;28;20062;-74
2023/03/05 02:02:20;;;;;;;13.30;1.50;;;0.80;86.70;;;;;;4962388;28;20078;-74
2023/03/05 02:04:56;;;;;;;9.60;2.30;;;0.70;87.90;;;;;;4961590;28;20057;-74
2023/03/05 02:07:24;;;;;;;10.85;1.70;;;0.70;87.90;;;;;;4946975;28;20055;-74
2023/03/05 02:09:51;;;;;;;14.57;2.33;;;0.70;88.00;;;;;;4964601;28;20055;-74
2023/03/05 02:12:17;;;;;;;11.00;1.83;;;0.70;87.80;;;;;;4946358;28;20047;-74
2023/03/05 02:14:47;;;;;;;26.17;2.00;;;0.70;87.50;;;;;;4963683;28;20061;-74
2023/03/05 02:17:14;;;;;;;9.05;1.77;;;0.70;87.20;;;;;;4960374;28;20042;-74
2023/03/05 02:19:53;;;;;;;17.95;2.80;;;0.70;86.90;;;;;;4967435;28;20050;-80
2023/03/05 02:22:23;;;;;;;13.13;1.65;;;0.70;86.80;;;;;;4966078;28;20051;-80
2023/03/05 02:24:50;;;;;;;16.20;1.40;;;0.70;86.70;;;;;;4967511;28;20058;-81
2023/03/05 02:27:22;;;;;;;9.52;1.25;;;0.70;87.20;;;;;;4963543;28;21026;-80
2023/03/05 02:29:50;;;;;;;11.18;1.83;;;0.70;86.60;;;;;;4963032;28;20058;-80
2023/03/05 02:32:17;;;;;;;6.95;1.35;;;0.70;87.00;;;;;;4970166;28;20718;-80
2023/03/05 02:34:44;;;;;;;18.45;1.73;;;0.70;86.00;;;;;;4965797;28;20047;-80
2023/03/05 02:37:11;;;;;;;19.90;1.67;;;0.70;85.10;;;;;;4954146;28;20046;-80
2023/03/05 02:39:38;;;;;;;20.30;1.88;;;0.80;84.80;;;;;;4971577;28;20051;-81
2023/03/05 02:42:05;;;;;;;12.75;1.38;;;0.80;84.50;;;;;;4967352;28;20050;-80
2023/03/05 02:44:32;;;;;;;12.13;2.08;;;0.90;84.00;;;;;;4947912;28;20058;-80
2023/03/05 02:46:59;;;;;;;12.82;1.80;;;0.90;83.80;;;;;;4948664;28;20144;-81
2023/03/05 02:49:27;;;;;;;12.50;1.63;;;0.90;83.70;;;;;;4966460;28;20043;-80
2023/03/05 02:51:54;;;;;;;14.18;1.50;;;0.90;83.70;;;;;;4948929;28;20074;-81
2023/03/05 02:54:21;;;;;;;7.05;1.73;;;1.00;83.50;;;;;;4979627;23;20038;-81
2023/03/05 02:56:48;;;;;;;10.60;1.40;;;1.00;83.70;;;;;;4985659;28;20068;-80
2023/03/05 02:59:15;;;;;;;13.85;1.38;;;1.00;83.50;;;;;;4989345;28;20050;-81
2023/03/05 03:01:42;;;;;;;13.93;1.98;;;1.10;82.40;;;;;;4989245;28;20050;-80
2023/03/05 03:04:08;;;;;;;10.95;1.92;;;1.10;82.70;;;;;;4988851;28;20046;-81
2023/03/05 03:06:35;;;;;;;6.53;1.50;;;1.10;82.70;;;;;;4986865;28;20050;-81
2023/03/05 03:09:02;;;;;;;16.17;2.10;;;1.10;83.00;;;;;;4990878;28;20150;-80
2023/03/05 03:11:29;;;;;;;10.05;1.58;;;1.20;83.00;;;;;;4995946;28;20054;-81
2023/03/05 03:13:56;;;;;;;17.52;2.75;;;1.20;83.10;;;;;;4993386;28;20047;-81
2023/03/05 03:16:22;;;;;;;11.18;1.67;;;1.20;83.00;;;;;;4986976;28;20066;-81
2023/03/05 03:18:49;;;;;;;15.50;1.77;;;1.20;82.40;;;;;;4987434;28;20062;-80
2023/03/05 03:21:24;;;;;;;9.48;1.15;;;1.20;83.20;;;;;;4986051;28;20043;-80
2023/03/05 03:23:51;;;;;;;9.85;1.83;;;1.20;82.30;;;;;;4994101;28;20060;-81
2023/03/05 03:26:18;;;;;;;14.13;1.67;;;1.20;82.20;;;;;;4989044;28;20050;-81
2023/03/05 03:28:46;;;;;;;13.50;1.83;;;1.20;81.90;;;;;;4979200;28;20490;-81
2023/03/05 03:31:13;;;;;;;10.55;1.30;;;1.20;82.00;;;;;;4988642;28;20042;-81
2023/03/05 03:33:40;;;;;;;18.83;1.52;;;1.20;81.80;;;;;;4990842;28;20125;-81
2023/03/05 03:36:07;;;;;;;14.68;1.35;;;1.20;81.80;;;;;;4986290;28;20054;-81
2023/03/05 03:38:34;;;;;;;9.43;1.58;;;1.20;81.60;;;;;;4988609;28;20046;-80
2023/03/05 03:41:00;;;;;;;7.70;1.10;;;1.10;81.70;;;;;;4994800;28;20078;-81
2023/03/05 03:43:27;;;;;;;12.35;1.02;;;1.10;82.20;;;;;;4986282;28;20137;-81
2023/03/05 03:45:54;;;;;;;11.02;1.35;;;1.00;82.60;;;;;;4985517;28;20059;-81
2023/03/05 03:48:21;;;;;;;9.30;1.25;;;0.90;82.90;;;;;;4988279;28;20061;-81
2023/03/05 03:50:48;;;;;;;6.15;1.33;;;0.90;83.10;;;;;;4990311;28;20058;-81
2023/03/05 03:53:16;;;;;;;13.00;1.42;;;0.90;82.70;;;;;;5007037;28;20056;-80
2023/03/05 03:58:43;;;;;;;10.25;1.65;;;0.90;83.00;;;;;;4963790;28;20547;-74
2023/03/05 04:01:10;;;;;;;10.70;1.60;;;0.90;82.70;;;;;;4962490;28;20058;-74
2023/03/05 04:03:37;;;;;;;12.80;1.83;;;1.00;82.10;;;;;;4971167;28;20561;-81
2023/03/05 04:06:04;;;;;;;8.00;1.15;;;1.00;82.30;;;;;;4973351;28;20058;-81
2023/03/05 04:08:31;;;;;;;16.15;1.45;;;1.00;81.60;;;;;;4957491;28;20707;-81
2023/03/05 04:10:59;;;;;;;12.70;1.55;;;1.10;80.80;;;;;;4958587;28;20478;-81
2023/03/05 04:13:26;;;;;;;17.50;1.52;;;1.10;81.00;;;;;;4973783;28;20043;-81
2023/03/05 04:15:54;;;;;;;11.02;1.05;;;1.00;82.30;;;;;;4972916;28;20058;-80
2023/03/05 04:18:20;;;;;;;4.38;1.05;;;0.90;85.40;;;;;;4970957;28;20054;-80
2023/03/05 04:23:31;;;;;;;6.00;1.10;;;0.80;85.30;;;;;;5003209;28;20050;-74
2023/03/05 04:25:58;;;;;;;10.02;1.20;;;0.70;86.10;;;;;;4996955;28;20049;-74
2023/03/05 04:28:25;;;;;;;5.40;1.38;;;0.70;85.70;;;;;;5003839;28;20887;-74
2023/03/05 04:34:02;;;;;;;4.75;1.50;;;0.70;85.90;;;;;;4964094;28;20051;-80
2023/03/05 04:36:29;;;;;;;14.18;1.77;;;0.60;85.70;;;;;;4961771;28;20081;-79
2023/03/05 04:38:56;;;;;;;9.35;1.40;;;0.60;86.00;;;;;;4964600;28;20055;-80
2023/03/05 04:41:23;;;;;;;19.83;1.70;;;0.60;86.70;;;;;;4971164;28;20110;-80
2023/03/05 04:43:49;;;;;;;10.25;1.70;;;0.50;86.40;;;;;;4967711;28;20058;-80
2023/03/05 04:46:16;;;;;;;9.57;1.63;;;0.50;86.40;;;;;;4966387;28;20075;-80
2023/03/05 04:48:43;;;;;;;7.32;1.52;;;0.50;84.50;;;;;;4967424;28;20057;-81
2023/03/05 04:51:10;;;;;;;8.45;1.38;;;0.50;83.00;;;;;;4966404;28;20065;-80
2023/03/05 04:53:37;;;;;;;14.48;1.83;;;0.50;83.50;;;;;;4960065;28;20046;-79
2023/03/05 04:56:04;;;;;;;12.13;1.98;;;0.50;83.70;;;;;;4958835;28;20050;-81
2023/03/05 04:58:31;;;;;;;14.88;1.88;;;0.40;84.40;;;;;;4967462;28;20046;-80
2023/03/05 05:01:03;;;;;;;11.63;1.27;;;0.40;83.80;;;;;;4958110;28;20054;-80
2023/03/05 05:03:30;;;;;;;13.63;1.70;;;0.40;83.60;;;;;;4966323;28;20789;-80
2023/03/05 05:05:58;;;;;;;16.25;1.27;;;0.50;83.50;;;;;;4969512;28;20081;-80
2023/03/05 05:08:26;;;;;;;14.35;1.77;;;0.40;83.80;;;;;;4964727;28;20061;-80
2023/03/05 05:11:04;;;;;;;14.43;1.60;;;0.50;84.00;;;;;;4966614;28;20050;-80
2023/03/05 05:13:33;;;;;;;12.32;1.40;;;0.50;83.80;;;;;;4950562;28;20053;-77
2023/03/05 05:16:00;;;;;;;19.00;1.73;;;0.50;83.40;;;;;;4968862;28;20141;-79
2023/03/05 05:18:27;;;;;;;12.93;2.17;;;0.50;83.60;;;;;;4964404;28;20106;-80
2023/03/05 05:20:54;;;;;;;12.95;1.65;;;0.50;83.90;;;;;;4966833;28;20062;-80
2023/03/05 05:23:21;;;;;;;7.57;1.20;;;0.50;83.70;;;;;;4970097;28;20134;-79
2023/03/05 05:26:02;;;;;;;12.38;1.70;;;0.50;83.80;;;;;;4949670;28;20050;-79
2023/03/05 05:28:29;;;;;;;8.23;1.30;;;0.50;83.20;;;;;;4963587;28;20046;-79
2023/03/05 05:30:56;;;;;;;13.90;2.00;;;0.50;83.60;;;;;;4967130;28;20055;-79
2023/03/05 05:33:23;;;;;;;13.80;1.05;;;0.50;83.80;;;;;;4967469;28;20051;-79
2023/03/05 05:35:50;;;;;;;9.23;1.15;;;0.50;83.60;;;;;;4966975;28;20109;-79
2023/03/05 05:38:17;;;;;;;6.93;1.63;;;0.50;83.50;;;;;;4966049;28;20051;-79
2023/03/05 05:40:43;;;;;;;14.77;1.75;;;0.50;83.60;;;;;;4960898;28;20047;-79
2023/03/05 05:43:10;;;;;;;7.68;1.38;;;0.50;83.30;;;;;;4964273;28;20352;-79
2023/03/05 05:45:37;;;;;;;23.48;6.93;;;0.50;83.20;;;;;;4955206;28;20061;-80
2023/03/05 05:48:06;;;;;;;18.92;6.43;;;0.50;82.90;;;;;;4966082;28;20051;-79
2023/03/05 05:50:32;;;;;;;14.15;2.38;;;0.50;83.30;;;;;;4963618;28;20066;-79
2023/03/05 05:52:59;;;;;;;24.80;11.13;;;0.50;83.50;;;;;;4965042;28;20543;-79
2023/03/05 05:55:26;;;;;;;18.08;2.35;;;0.50;83.70;;;;;;4964450;28;20070;-80
2023/03/05 05:57:53;;;;;;;13.30;1.35;;;0.50;83.90;;;;;;4955491;28;20055;-80
2023/03/05 06:00:20;;;;;;;9.15;2.97;;;0.50;84.20;;;;;;4953829;28;20090;-79
2023/03/05 06:02:47;;;;;;;7.63;1.40;;;0.50;84.00;;;;;;4968665;28;20049;-79
2023/03/05 06:05:14;;;;;;;20.05;2.30;;;0.50;83.90;;;;;;4965157;28;20466;-79
2023/03/05 06:07:41;;;;;;;6.32;1.10;;;0.50;84.10;;;;;;4973775;23;20502;-79
2023/03/05 06:10:09;;;;;;;8.98;1.23;;;0.50;84.20;;;;;;4929020;29;20039;-79
2023/03/05 06:15:04;;;;;;;14.70;1.70;;;0.50;84.20;;;;;;4929838;29;20047;-80
2023/03/05 06:17:31;;;;;;;7.00;1.13;;;0.50;84.00;;;;;;4933139;29;20055;-79
2023/03/05 06:19:58;;;;;;;12.13;1.60;;;0.60;85.20;;;;;;4933424;29;20056;-79
2023/03/05 06:22:25;;;;;;;10.63;2.10;;;0.50;86.10;;;;;;4931649;29;20055;-79
2023/03/05 06:24:52;;;;;;;9.30;1.77;;;0.50;85.80;;;;;;4933437;29;20052;-79
2023/03/05 06:27:19;;;;;;;10.38;1.80;;;0.50;85.50;;;;;;4946066;28;20360;-80
2023/03/05 06:29:46;;;;;;;19.40;1.70;;;0.50;86.00;;;;;;4930775;29;20043;-78
2023/03/05 06:32:13;;;;;;;6.10;1.50;;;0.50;87.10;;;;;;4932311;29;20744;-78
2023/03/05 06:34:39;;;;;;;4.85;1.80;;;0.60;87.90;;;;;;4932205;29;20099;-78
2023/03/05 06:37:06;;;;;;;7.65;1.55;;;0.50;84.50;;;;;;4931440;29;20047;-78
2023/03/05 06:39:33;;;;;;;10.05;1.70;;;0.50;84.90;;;;;;4931989;29;20066;-73
2023/03/05 06:42:00;;;;;;;12.98;2.40;;;0.60;85.00;;;;;;4926742;29;20063;-73
2023/03/05 06:44:27;;;;;;;9.18;1.77;;;0.60;84.30;;;;;;4929944;29;20052;-74
2023/03/05 06:46:53;;;;;;;12.20;1.75;;;0.60;84.80;;;;;;4924878;29;20055;-73
2023/03/05 06:49:20;;;;;;;9.75;1.60;;;0.60;84.70;;;;;;4926579;29;20551;-74
2023/03/05 06:51:47;;;;;;;11.18;2.03;;;0.60;84.70;;;;;;4927456;29;20096;-73
2023/03/05 06:54:16;;;;;;;9.90;2.08;;;0.70;84.70;;;;;;4926281;29;20061;-73
2023/03/05 06:56:45;;;;;;;8.02;2.33;;;0.70;84.20;;;;;;4934323;29;20047;-73
2023/03/05 06:59:14;;;;;;;16.13;1.58;;;0.70;83.80;;;;;;4926161;29;20567;-74
2023/03/05 07:01:42;;;;;;;12.88;1.20;;;0.80;84.10;;;;;;4939418;28;20555;-74
2023/03/05 07:04:10;;;;;;;10.27;1.33;;;0.70;83.00;;;;;;4924091;29;20063;-74
2023/03/05 07:06:39;;;;;;;7.90;1.75;;;0.80;83.80;;;;;;4926380;29;20056;-74
2023/03/05 07:09:07;;;;;;;6.50;1.77;;;0.80;83.40;;;;;;4923888;29;20054;-74
2023/03/05 07:11:34;;;;;;;7.72;1.60;;;0.70;83.80;;;;;;4924639;29;20046;-74
2023/03/05 07:14:02;;;;;;;3.17;1.38;;;0.70;83.60;;;;;;4925569;29;20051;-74
2023/03/05 07:16:31;;;;;;;15.07;1.70;;;0.70;83.60;;;;;;4926802;29;20559;-73
2023/03/05 07:19:01;;;;;;;14.85;2.00;;;0.70;82.70;;;;;;4926143;29;20727;-73
2023/03/05 07:21:31;;;;;;;6.97;1.25;;;0.80;83.40;;;;;;4939720;29;20130;-73
2023/03/05 07:24:00;;;;;;;18.20;2.95;;;0.80;83.10;;;;;;4928535;29;20532;-73
2023/03/05 07:26:27;;;;;;;13.75;2.55;;;0.80;83.50;;;;;;4955755;23;20050;-74
2023/03/05 07:28:54;;;;;;;7.13;2.97;;;0.80;83.00;;;;;;4993862;28;20092;-74
2023/03/05 07:31:25;;;;;;;8.45;1.35;;;0.80;83.70;;;;;;4999435;28;20073;-74
2023/03/05 07:33:53;;;;;;;6.50;1.33;;;0.80;82.80;;;;;;4995715;28;20042;-74
2023/03/05 07:36:20;;;;;;;3.35;1.13;;;0.80;83.50;;;;;;4998130;28;20049;-74
2023/03/05 07:38:47;;;;;;;6.88;1.55;;;0.80;83.80;;;;;;5001262;28;20738;-73
2023/03/05 07:41:19;;;;;;;9.55;1.40;;;0.80;82.80;;;;;;4984665;28;20059;-73
2023/03/05 07:43:52;;;;;;;6.32;1.40;;;0.80;82.80;;;;;;4995534;28;20043;-74
2023/03/05 07:46:22;;;;;;;6.78;1.10;;;0.80;83.20;;;;;;5002674;28;20447;-74
2023/03/05 07:48:50;;;;;;;13.23;2.55;;;0.80;83.90;;;;;;4996552;28;20100;-76
2023/03/05 07:51:18;;;;;;;8.82;1.67;;;0.70;83.90;;;;;;4995976;28;20046;-76
2023/03/05 07:54:13;;;;;;;6.60;1.60;;;0.70;84.40;;;;;;5000210;28;20054;-76
2023/03/05 07:56:40;;;;;;;7.15;1.02;;;0.70;84.50;;;;;;5000155;28;20046;-85
2023/03/05 07:59:10;;;;;;;21.88;2.10;;;0.70;84.20;;;;;;4977418;28;20140;-79
2023/03/05 08:01:37;;;;;;;12.02;2.00;;;0.70;84.40;;;;;;4981034;28;20053;-78
2023/03/05 08:04:06;;;;;;;16.77;1.60;;;0.70;84.50;;;;;;4993555;28;20061;-79
2023/03/05 08:06:33;;;;;;;9.00;1.20;;;0.70;85.10;;;;;;4982023;28;20045;-79
2023/03/05 08:09:00;;;;;;;10.50;1.83;;;0.70;84.60;;;;;;5000512;28;20762;-77
2023/03/05 08:11:27;;;;;;;11.98;1.58;;;0.70;84.50;;;;;;4994222;28;20052;-78
2023/03/05 08:13:56;;;;;;;8.30;2.17;;;0.70;85.30;;;;;;4998582;28;20556;-77
2023/03/05 08:16:24;;;;;;;11.50;1.75;;;0.70;85.40;;;;;;4979891;28;20062;-78
2023/03/05 08:18:56;;;;;;;8.07;1.10;;;0.70;85.80;;;;;;4997690;28;20054;-77
2023/03/05 08:21:26;;;;;;;8.95;1.23;;;0.80;85.80;;;;;;4977213;28;20054;-76
2023/03/05 08:23:53;;;;;;;7.93;1.52;;;0.80;86.80;;;;;;4994598;28;20053;-77
2023/03/05 08:26:22;;;;;;;9.10;1.80;;;0.70;86.70;;;;;;4993816;28;20050;-76
2023/03/05 08:28:49;;;;;;;11.02;1.25;;;0.70;87.10;;;;;;4997848;28;20061;-76
2023/03/05 08:31:17;;;;;;;11.15;1.83;;;0.70;87.60;;;;;;4999509;28;20050;-76
2023/03/05 08:33:44;;;;;;;11.40;1.40;;;0.70;88.20;;;;;;4982654;28;20514;-75
2023/03/05 08:36:12;;;;;;;6.82;1.20;;;0.70;87.80;;;;;;4996714;28;20110;-79
2023/03/05 08:38:39;;;;;;;14.10;1.50;;;0.80;88.40;;;;;;4977027;28;20058;-75
2023/03/05 08:41:07;;;;;;;9.15;1.30;;;0.80;88.10;;;;;;5014617;23;20046;-80
2023/03/05 08:43:34;;;;;;;7.60;2.00;;;0.80;88.20;;;;;;5010991;28;20474;-80
2023/03/05 08:46:01;;;;;;;7.63;1.67;;;0.80;87.10;;;;;;5006302;28;20046;-77
2023/03/05 08:48:28;;;;;;;13.57;1.65;;;0.80;87.40;;;;;;5001720;28;20041;-78
2023/03/05 08:50:55;;;;;;;13.52;1.42;;;0.80;88.20;;;;;;5005511;28;20046;-78
2023/03/05 08:53:22;;;;;;;11.10;1.40;;;0.80;87.50;;;;;;5004159;28;20103;-74
2023/03/05 08:55:54;;;;;;;6.57;1.50;;;0.90;88.10;;;;;;5005576;28;20058;-75
2023/03/05 09:00:49;;;;;;;4.28;1.20;;;1.10;89.00;;;;;;4986794;28;20054;-77
2023/03/05 09:03:16;;;;;;;8.55;1.25;;;1.10;86.70;;;;;;4966548;28;20788;-79
2023/03/05 09:08:42;;;;;;;5.97;1.00;;;1.10;85.30;;;;;;5002570;28;20132;-77
2023/03/05 09:11:11;;;;;;;7.90;1.10;;;1.10;83.80;;;;;;4984204;28;20053;-76
2023/03/05 09:17:01;;;;;;;14.88;2.05;;;1.30;82.80;;;;;;4902353;29;20053;-75
2023/03/05 09:19:28;;;;;;;7.57;1.40;;;1.30;80.90;;;;;;4918008;29;20044;-76
2023/03/05 09:21:54;;;;;;;4.38;1.10;;;1.40;77.50;;;;;;4904877;29;20082;-78
2023/03/05 09:24:22;;;;;;;9.93;0.90;;;1.30;72.50;;;;;;4903497;29;20582;-75
2023/03/05 09:26:49;;;;;;;4.57;0.90;;;1.40;71.20;;;;;;4904562;29;20788;-76
2023/03/05 09:29:16;;;;;;;1.98;0.80;;;1.40;71.30;;;;;;4902457;29;20048;-76
2023/03/05 09:31:43;;;;;;;4.03;0.88;;;1.50;71.70;;;;;;4902873;29;20049;-77
2023/03/05 09:34:11;;;;;;;7.90;1.10;;;1.50;70.90;;;;;;4916916;29;20068;-74
2023/03/05 09:36:37;;;;;;;16.95;1.13;;;1.50;69.60;;;;;;4899827;29;20059;-74
2023/03/05 09:39:05;;;;;;;2.90;0.85;;;1.50;72.30;;;;;;4917898;29;20880;-73
2023/03/05 09:41:54;;;;;;;8.23;0.80;;;2.40;69.30;;;;;;5033186;23;20113;-76
2023/03/05 09:44:51;;;;;;;3.00;0.65;;;3.90;66.30;;;;;;4973473;28;20472;-74
2023/03/05 09:47:30;;;;;;;1.70;0.40;;;4.70;61.50;;;;;;4972565;28;20465;-81
2023/03/05 09:50:04;;;;;;;3.38;0.55;;;4.90;59.90;;;;;;4966413;28;20046;-85
2023/03/05 09:52:42;;;;;;;6.93;0.82;;;4.90;58.70;;;;;;4981413;28;20386;-82
2023/03/05 09:55:19;;;;;;;4.65;0.70;;;5.10;60.80;;;;;;4964045;28;20047;-85
2023/03/05 09:57:51;;;;;;;4.22;0.80;;;5.60;60.90;;;;;;5076809;23;20043;-80
2023/03/05 10:00:33;;;;;;;5.30;0.50;;;6.90;58.50;;;;;;4982474;28;20054;-83
2023/03/05 10:03:04;;;;;;;7.40;0.77;;;7.70;52.20;;;;;;4982109;28;20050;-82
2023/03/05 10:06:20;;;;;;;4.38;0.68;;;6.70;57.30;;;;;;4982136;28;20073;-80
2023/03/05 10:09:13;;;;;;;2.42;0.55;;;7.10;55.80;;;;;;4983664;28;20077;-82
2023/03/05 10:11:49;;;;;;;1.70;0.75;;;5.70;54.00;;;;;;4980666;28;20133;-83
2023/03/05 10:14:27;;;;;;;3.42;0.75;;;4.90;53.50;;;;;;4980328;28;20045;-83
2023/03/05 10:17:16;;;;;;;3.67;0.70;;;5.50;57.70;;;;;;4980225;28;20097;-85
2023/03/05 10:19:52;;;;;;;7.22;1.10;;;6.10;52.50;;;;;;4995647;28;20053;-85
2023/03/05 10:22:29;;;;;;;2.95;0.75;;;6.20;53.20;;;;;;5052656;23;20475;-75
2023/03/05 10:25:02;;;;;;;5.93;0.60;;;6.40;52.70;;;;;;4975400;28;20061;-71
2023/03/05 10:27:37;;;;;;;2.58;1.13;;;6.80;50.90;;;;;;4974661;28;20164;-76
2023/03/05 10:30:22;;;;;;;0.85;0.30;;;6.60;48.60;;;;;;4957636;28;20057;-77
2023/03/05 10:32:54;;;;;;;3.15;0.60;;;5.80;51.80;;;;;;4971786;28;20046;-72
2023/03/05 10:35:54;;;;;;;5.47;0.82;;;5.40;52.60;;;;;;4977222;28;20571;-74
2023/03/05 10:38:38;;;;;;;7.93;0.40;;;7.10;53.40;;;;;;4982830;28;20070;-74
2023/03/05 10:41:27;;;;;;;2.30;0.55;;;8.50;49.90;;;;;;4965874;28;20061;-81
2023/03/05 10:44:14;;;;;;;0.93;0.43;;;9.50;46.20;;;;;;4955040;28;20057;-73
2023/03/05 10:46:41;;;;;;;4.63;0.75;;;9.00;44.60;;;;;;4973322;28;20061;-74
2023/03/05 10:49:16;;;;;;;3.53;0.90;;;8.30;46.20;;;;;;4974714;28;20236;-74
2023/03/05 10:52:05;;;;;;;1.33;0.43;;;8.30;46.50;;;;;;4970776;28;20077;-75
2023/03/05 10:54:37;;;;;;;1.65;0.63;;;8.70;47.40;;;;;;4973552;28;20050;-78
2023/03/05 10:57:25;;;;;;;0.75;0.50;;;9.90;45.10;;;;;;4960795;28;20528;-77
2023/03/05 11:00:04;;;;;;;8.88;1.27;;;9.60;42.90;;;;;;5116171;23;20085;-76
2023/03/05 11:02:32;;;;;;;4.53;0.40;;;9.10;43.40;;;;;;4977675;28;20069;-77
2023/03/05 11:04:59;;;;;;;4.03;0.40;;;8.80;44.40;;;;;;4992532;23;20158;-77
2023/03/05 11:07:32;;;;;;;1.77;0.63;;;8.60;44.30;;;;;;4992186;28;20074;-75
2023/03/05 11:10:00;;;;;;;14.18;0.55;;;8.60;44.60;;;;;;4985674;28;20054;-77
2023/03/05 11:22:04;;;;;;;1.08;0.40;;;8.40;44.40;;;;;;4967137;28;20092;-75
2023/03/05 11:27:36;;;;;;;5.07;0.50;;;8.40;43.50;;;;;;4954982;28;20194;-75
2023/03/05 11:30:19;;;;;;;3.70;0.70;;;8.80;44.30;;;;;;4962352;28;20054;-73
2023/03/05 11:32:46;;;;;;;3.83;0.73;;;8.50;44.00;;;;;;4952789;28;20370;-72
2023/03/05 11:35:32;;;;;;;5.43;1.45;;;9.30;45.70;;;;;;4952280;28;20038;-72
2023/03/05 11:38:02;;;;;;;7.00;0.75;;;10.40;43.10;;;;;;4959095;28;20050;-74
2023/03/05 11:40:46;;;;;;;3.65;0.90;;;11.20;43.30;;;;;;4961411;28;20054;-74
2023/03/05 11:43:19;;;;;;;6.70;0.90;;;11.50;40.40;;;;;;4955293;28;20050;-72
2023/03/05 11:45:50;;;;;;;1.60;0.70;;;10.90;41.70;;;;;;4957603;28;20055;-72
2023/03/05 11:48:29;;;;;;;2.40;0.55;;;9.80;40.40;;;;;;5057685;23;20162;-73
2023/03/05 11:50:59;;;;;;;2.92;0.70;;;8.30;40.20;;;;;;4976905;28;20145;-76
2023/03/05 11:53:31;;;;;;;2.35;0.80;;;6.40;43.20;;;;;;5038299;23;20050;-75
2023/03/05 11:56:19;;;;;;;3.40;0.80;;;5.60;45.40;;;;;;4982164;23;20449;-74
2023/03/05 11:59:00;;;;;;;7.28;1.85;;;5.30;50.40;;;;;;5008307;23;20058;-75
2023/03/05 12:01:32;;;;;;;3.22;1.38;;;4.90;46.40;;;;;;4991280;28;20057;-74
2023/03/05 12:03:59;;;;;;;1.70;1.00;;;5.20;47.70;;;;;;4996728;28;20104;-73
2023/03/05 12:06:35;;;;;;;4.00;1.10;;;5.10;46.70;;;;;;4983214;28;20054;-73
2023/03/05 12:09:22;;;;;;;;;;;4.60;47.70;;;;;;5000372;28;20046;-73
2023/03/05 12:11:55;;;;;;;1.98;0.60;;;5.10;51.90;;;;;;4996067;28;19936;-73
2023/03/05 12:14:27;;;;;;;4.78;0.80;;;6.60;50.00;;;;;;5000021;28;20045;-75
2023/03/05 12:17:08;;;;;;;4.00;1.27;;;7.80;46.80;;;;;;4983920;28;20154;-75
2023/03/05 12:19:44;;;;;;;3.80;1.00;;;8.50;43.70;;;;;;4988842;28;20157;-75
2023/03/05 12:22:20;;;;;;;1.20;0.35;;;8.80;42.10;;;;;;5001688;28;20054;-75
2023/03/05 12:24:47;;;;;;;5.10;1.40;;;8.30;38.80;;;;;;4985336;28;20249;-75
2023/03/05 12:27:29;;;;;;;3.35;0.40;;;6.90;43.00;;;;;;4985226;28;20064;-75
2023/03/05 12:30:00;;;;;;;3.13;0.60;;;5.90;43.70;;;;;;4987909;28;20093;-75
2023/03/05 12:32:33;;;;;;;1.27;0.50;;;5.40;48.30;;;;;;5002945;28;20046;-74
2023/03/05 12:35:23;;;;;;;3.83;0.85;;;5.90;45.80;;;;;;5006246;28;20046;-74
2023/03/05 12:37:50;;;;;;;2.97;0.50;;;6.70;47.00;;;;;;5007939;28;20058;-75
2023/03/05 12:40:21;;;;;;;5.18;0.77;;;7.90;46.00;;;;;;5001878;28;20141;-74
2023/03/05 12:42:51;;;;;;;5.05;0.73;;;8.90;44.80;;;;;;5002949;28;20055;-76
2023/03/05 12:45:18;;;;;;;8.23;0.60;;;9.00;43.70;;;;;;5000025;28;20046;-77
2023/03/05 12:48:10;;;;;;;3.50;0.40;;;9.50;43.80;;;;;;4998498;28;20193;-73
2023/03/05 12:50:37;;;;;;;1.77;0.60;;;9.60;42.90;;;;;;4907838;29;20044;-76
2023/03/05 12:53:17;;;;;;;4.25;0.77;;;10.00;42.60;;;;;;4986169;28;20161;-75
2023/03/05 12:55:46;;;;;;;1.55;0.43;;;10.50;40.90;;;;;;5003005;28;20053;-75
2023/03/05 12:58:27;;;;;;;2.60;0.60;;;10.60;41.40;;;;;;5004322;28;20046;-77
2023/03/05 13:01:09;;;;;;;2.45;0.75;;;10.60;41.60;;;;;;4990095;28;20137;-75
2023/03/05 13:03:42;;;;;;;2.75;0.70;;;10.80;43.00;;;;;;5004853;28;20363;-75
2023/03/05 13:06:25;;;;;;;2.72;1.02;;;11.60;42.20;;;;;;5004802;28;20054;-75
2023/03/05 13:12:28;;;;;;;2.35;0.68;;;10.80;41.90;;;;;;4981385;28;20105;-73
2023/03/05 13:15:05;;;;;;;1.67;0.30;;;10.10;38.10;;;;;;4985639;28;20781;-76
2023/03/05 13:17:36;;;;;;;6.43;0.70;;;8.30;40.90;;;;;;4984536;28;20145;-76
2023/03/05 13:20:38;;;;;;;4.45;1.40;;;7.10;47.00;;;;;;4984398;28;20078;-76
2023/03/05 13:23:15;;;;;;;4.20;1.20;;;7.00;46.40;;;;;;4982434;28;20054;-74
2023/03/05 13:25:43;;;;;;;1.60;0.68;;;7.20;45.60;;;;;;4983821;28;20137;-74
2023/03/05 13:28:14;;;;;;;4.13;1.10;;;7.40;46.60;;;;;;4985826;28;20053;-74
2023/03/05 13:30:55;;;;;;;1.88;0.55;;;8.00;47.00;;;;;;4985742;28;20065;-76
2023/03/05 13:33:29;;;;;;;16.08;2.80;;;8.90;43.80;;;;;;4984922;28;20052;-75
2023/03/05 13:35:55;;;;;;;3.83;1.35;;;9.20;44.90;;;;;;4982665;28;20053;-75
2023/03/05 13:38:36;;;;;;;2.08;0.90;;;9.80;43.10;;;;;;4984765;28;20078;-75
2023/03/05 13:44:59;;;;;;;2.75;0.60;;;7.00;42.50;;;;;;5001678;28;20050;-76
2023/03/05 13:47:29;;;;;;;2.20;0.63;;;5.60;45.50;;;;;;5003530;28;21182;-74
2023/03/05 13:52:45;;;;;;;2.60;0.52;;;4.70;50.10;;;;;;4956724;28;20047;-74
2023/03/05 13:55:23;;;;;;;4.82;0.98;;;4.60;49.20;;;;;;4959580;28;20066;-75
2023/03/05 13:57:58;;;;;;;1.55;0.55;;;4.40;49.80;;;;;;4961380;28;20058;-74
2023/03/05 14:00:37;;;;;;;1.90;0.65;;;4.20;49.20;;;;;;5168091;23;20065;-74